Terminal Aerodrome Forecast
Issued by NWS Austin/San Antonio, TX

Home | Current Version | Previous Version | Text Only | Print | Product List | Glossary On
Versions: 1 2 3 4 5 6 7 8 9 10 11 12 13 14 15 16 17 18 19 20 21 22 23 24
094
FTUS44 KEWX 252345
TAFAUS
TAF
KAUS 252345Z 2600/2706 36006KT P6SM -RA VCTS BKN010 BKN020CB OVC050
     FM260100 03005KT 5SM -SHRA BR BKN025 OVC070
     FM260600 02008KT 3SM -SHRA BR OVC007
     FM260900 02005KT 2SM BR OVC004
     FM261500 02008KT 5SM BR OVC007
     FM261800 02012KT P6SM OVC020=

USA.gov is the U.S. government's official web portal to all federal, state and local government web resources and services.